Time;durP1;ratioP1;P1;durP2;ratioP2;P2;SDS_P1;SDS_P2;PMS_P1;PMS_P2;Temp;Humidity;BMP_temperature;BMP_pressure;BME280_temperature;BME280_humidity;BME280_pressure;Samples;Min_cycle;Max_cycle;Signal;HPM_P1;HPM_P2
2023/10/05 00:00:33;;;;;;;;;;;;;;;17.48;60.34;100272.41;350364;28;836;-75
2023/10/05 00:00:47;;;;;;;;;;;;;;;17.48;60.48;100275.03;347681;28;892;-75
2023/10/05 00:01:44;;;;;;;;;;;;;;;17.46;60.49;100276.91;346272;28;948;-75
2023/10/05 00:02:08;;;;;;;;;;;;;;;17.47;60.43;100278.63;346772;28;1553;-75
2023/10/05 00:02:21;;;;;;;;;;;;;;;17.48;60.41;100275.03;347533;28;1457;-75
2023/10/05 00:02:32;;;;;;;;;;;;;;;17.48;60.51;100276.84;346994;28;1540;-75
2023/10/05 00:02:42;;;;;;;;;;;;;;;17.47;60.63;100278.63;347486;28;1468;-75
2023/10/05 00:02:56;;;;;;;;;;;;;;;17.47;60.60;100278.63;347484;28;1071;-75
2023/10/05 00:03:08;;;;;;;;;;;;;;;17.47;60.77;100278.63;348532;28;1282;-75
2023/10/05 00:03:20;;;;;;;;;;;;;;;17.46;60.65;100273.41;349065;28;1038;-75
2023/10/05 00:03:30;;;;;;;;;;;;;;;17.45;60.81;100272.56;349157;28;1351;-75
2023/10/05 00:03:44;;;;;;;;;;;;;;;17.43;60.99;100276.25;350324;28;1349;-74
2023/10/05 00:03:54;;;;;;;;;;;;;;;17.43;60.95;100278.91;347089;28;1111;-75
2023/10/05 00:04:04;;;;;;;;;;;;;;;17.42;60.96;100274.53;346043;28;1341;-75
2023/10/05 00:04:15;;;;;;;;;;;;;;;17.41;60.96;100272.84;346089;28;1544;-75
2023/10/05 00:04:28;;;;;;;;;;;;;;;17.40;60.91;100272.00;346310;28;567;-75
2023/10/05 00:04:40;;;;;;;;;;;;;;;17.41;61.00;100273.69;346072;28;1287;-75
2023/10/05 00:04:51;;;;;;;;;;;;;;;17.39;61.06;100272.94;343525;28;1195;-75
2023/10/05 00:05:01;;;;;;;;;;;;;;;17.38;60.92;100273.88;345252;28;1399;-75
2023/10/05 00:05:13;;;;;;;;;;;;;;;17.37;61.09;100272.16;343533;28;1014;-75
2023/10/05 00:05:24;;;;;;;;;;;;;;;17.38;60.91;100273.88;343718;28;1567;-75
2023/10/05 00:05:36;;;;;;;;;;;;;;;17.38;61.17;100276.50;346376;28;1337;-75
2023/10/05 00:05:47;;;;;;;;;;;;;;;17.40;60.91;100276.44;344702;28;1440;-75
2023/10/05 00:06:13;;;;;;;;;;;;;;;17.40;60.99;100277.28;344857;28;1680;-75
2023/10/05 00:06:23;;;;;;;;;;;;;;;17.44;60.88;100272.66;344992;28;860;-75
2023/10/05 00:06:34;;;;;;;;;;;;;;;17.44;60.92;100273.50;345004;28;949;-75
2023/10/05 00:06:45;;;;;;;;;;;;;;;17.43;60.90;100271.81;342027;28;868;-75
2023/10/05 00:06:59;;;;;;;;;;;;;;;17.42;60.96;100274.53;340861;29;1261;-75
2023/10/05 00:07:18;;;;;;;;;;;;;;;17.40;60.99;100276.44;340908;28;1660;-75
2023/10/05 00:07:30;;;;;;;;;;;;;;;17.39;61.03;100270.28;339590;29;1493;-75
2023/10/05 00:07:40;;;;;;;;;;;;;;;17.40;61.11;100272.00;335675;29;1432;-75
2023/10/05 00:07:50;;;;;;;;;;;;;;;17.39;61.12;100270.28;335444;29;1396;-75
2023/10/05 00:08:02;;;;;;;;;;;;;;;17.41;61.11;100275.47;335295;29;1596;-75
2023/10/05 00:08:14;;;;;;;;;;;;;;;17.41;61.17;100268.41;334252;29;1964;-75
2023/10/05 00:08:24;;;;;;;;;;;;;;;17.43;60.97;100281.53;329409;29;1412;-75
2023/10/05 00:08:35;;;;;;;;;;;;;;;17.42;61.07;100279.84;332552;29;1208;-75
2023/10/05 00:08:49;;;;;;;;;;;;;;;17.40;61.08;100274.63;332776;29;1657;-75
2023/10/05 00:08:59;;;;;;;;;;;;;;;17.40;61.17;100276.44;331769;29;945;-75
2023/10/05 00:09:16;;;;;;;;;;;;;;;17.39;61.16;100275.56;333145;29;838;-75
2023/10/05 00:09:27;;;;;;;;;;;;;;;17.38;61.33;100279.16;329563;29;914;-75
2023/10/05 00:09:38;;;;;;;;;;;;;;;17.36;61.34;100275.75;332335;29;1964;-75
2023/10/05 00:09:49;;;;;;;;;;;;;;;17.34;61.38;100271.50;329414;29;1962;-75
2023/10/05 00:10:00;;;;;;;;;;;;;;;17.34;61.35;100277.63;326634;30;2177;-75
2023/10/05 00:10:12;;;;;;;;;;;;;;;17.34;61.60;100271.50;328092;30;808;-75
2023/10/05 00:10:23;;;;;;;;;;;;;;;17.33;61.37;100275.94;328925;30;2083;-75
2023/10/05 00:10:36;;;;;;;;;;;;;;;17.33;61.48;100270.63;326126;30;1646;-75
2023/10/05 00:10:46;;;;;;;;;;;;;;;17.35;61.40;100279.34;327916;30;1250;-75
2023/10/05 00:10:58;;;;;;;;;;;;;;;17.35;61.39;100279.34;329237;30;1248;-75
2023/10/05 00:11:08;;;;;;;;;;;;;;;17.36;61.42;100270.47;328057;30;1224;-75
2023/10/05 00:11:29;;;;;;;;;;;;;;;17.36;61.26;100274.91;323925;30;1783;-75
2023/10/05 00:11:39;;;;;;;;;;;;;;;17.35;61.44;100276.69;321024;30;868;-75
2023/10/05 00:11:53;;;;;;;;;;;;;;;17.37;61.43;100274.81;322275;30;2159;-75
2023/10/05 00:12:07;;;;;;;;;;;;;;;17.37;61.32;100277.44;320259;30;2341;-75
2023/10/05 00:12:21;;;;;;;;;;;;;;;17.40;61.14;100271.13;318506;30;2409;-75
2023/10/05 00:12:34;;;;;;;;;;;;;;;17.42;61.28;100280.69;315095;31;2477;-75
2023/10/05 00:12:47;;;;;;;;;;;;;;;17.43;61.19;100278.91;310734;31;2012;-75
2023/10/05 00:13:04;;;;;;;;;;;;;;;17.43;61.15;100279.75;312729;31;4504;-75
2023/10/05 00:13:15;;;;;;;;;;;;;;;17.42;61.39;100280.69;311469;31;2181;-75
2023/10/05 00:13:26;;;;;;;;;;;;;;;17.40;61.44;100274.63;312929;31;1250;-75
2023/10/05 00:13:37;;;;;;;;;;;;;;;17.40;61.53;100282.56;313103;31;2599;-75
2023/10/05 00:13:47;;;;;;;;;;;;;;;17.39;61.60;100272.94;310787;31;3113;-75
2023/10/05 00:14:03;;;;;;;;;;;;;;;17.36;61.78;100275.75;309753;31;1298;-75
2023/10/05 00:14:14;;;;;;;;;;;;;;;17.36;61.60;100270.47;312970;31;3182;-75
2023/10/05 00:14:24;;;;;;;;;;;;;;;17.38;61.65;100278.31;313136;31;791;-75
2023/10/05 00:14:37;;;;;;;;;;;;;;;17.36;61.67;100280.19;310362;31;3327;-75
2023/10/05 00:14:55;;;;;;;;;;;;;;;17.37;61.69;100268.66;310261;31;3032;-75
2023/10/05 00:15:22;;;;;;;;;;;;;;;17.29;61.82;100274.44;309609;31;2457;-75
2023/10/05 00:15:36;;;;;;;;;;;;;;;17.23;61.88;100265.06;308457;31;3513;-75
2023/10/05 00:15:46;;;;;;;;;;;;;;;17.22;61.63;100273.06;309206;31;3716;-75
2023/10/05 00:15:56;;;;;;;;;;;;;;;17.20;61.57;100274.97;307584;32;1332;-75
2023/10/05 00:16:07;;;;;;;;;;;;;;;17.16;61.69;100273.44;301220;32;4383;-75
2023/10/05 00:16:20;;;;;;;;;;;;;;;17.17;61.78;100272.50;301285;32;3841;-75
2023/10/05 00:16:37;;;;;;;;;;;;;;;17.14;61.69;100276.16;306174;32;4408;-75
2023/10/05 00:16:47;;;;;;;;;;;;;;;17.10;61.82;100277.28;307205;31;4096;-75
2023/10/05 00:17:00;;;;;;;;;;;;;;;17.10;61.82;100271.13;308762;31;1070;-75
2023/10/05 00:17:10;;;;;;;;;;;;;;;17.09;61.66;100278.22;304311;32;856;-75
2023/10/05 00:17:21;;;;;;;;;;;;;;;17.07;61.63;100280.09;303638;32;3731;-75
2023/10/05 00:17:33;;;;;;;;;;;;;;;17.06;61.86;100277.53;299677;32;3202;-75
2023/10/05 00:17:46;;;;;;;;;;;;;;;17.07;61.74;100281.88;296878;33;4430;-75
2023/10/05 00:17:56;;;;;;;;;;;;;;;17.10;61.71;100276.41;293995;33;2141;-75
2023/10/05 00:18:07;;;;;;;;;;;;;;;17.11;61.46;100281.63;296300;33;5230;-75
2023/10/05 00:18:20;;;;;;;;;;;;;;;17.12;61.71;100277.19;294231;33;6556;-75
2023/10/05 00:18:32;;;;;;;;;;;;;;;17.14;61.86;100281.44;293269;33;5504;-75
2023/10/05 00:18:42;;;;;;;;;;;;;;;17.16;61.82;100278.72;294145;33;1407;-75
2023/10/05 00:18:52;;;;;;;;;;;;;;;17.17;61.79;100280.41;292965;33;6092;-76
2023/10/05 00:19:12;;;;;;;;;;;;;;;17.17;61.84;100275.97;292809;33;6090;-75
2023/10/05 00:19:26;;;;;;;;;;;;;;;17.21;61.68;100272.22;293109;33;6262;-75
2023/10/05 00:19:39;;;;;;;;;;;;;;;17.23;61.69;100277.44;291484;33;5134;-75
2023/10/05 00:19:49;;;;;;;;;;;;;;;17.24;61.63;100281.78;288657;34;4660;-75
2023/10/05 00:19:59;;;;;;;;;;;;;;;17.25;61.71;100278.19;283756;34;6500;-75
2023/10/05 00:20:43;;;;;;;;;;;;;;;17.26;61.59;100277.25;283142;34;1420;-75
2023/10/05 00:20:48;;;;;;;;;;;;;;;17.29;61.13;100274.44;279766;35;8681;-75
2023/10/05 00:21:00;;;;;;;;;;;;;;;17.29;61.45;100270.00;275871;35;8166;-75
2023/10/05 00:21:10;;;;;;;;;;;;;;;17.30;61.25;100281.44;272270;36;1498;-75
2023/10/05 00:21:21;;;;;;;;;;;;;;;17.32;61.13;100279.53;272587;35;8378;-75
2023/10/05 00:23:49;;;;;;;;;;;;;;;17.32;60.98;100274.25;2493738;27;20357;-74
2023/10/05 00:24:00;;;;;;;;;;;;;;;17.31;61.15;100275.19;352992;28;1316;-74
2023/10/05 00:24:11;;;;;;;;;;;;;;;17.30;61.25;100286.72;353271;28;811;-75
2023/10/05 00:24:39;;;;;;;;;;;;;;;17.26;61.66;100278.09;350600;28;626;-74
2023/10/05 00:24:49;;;;;;;;;;;;;;;17.28;61.53;100278.03;350259;28;1504;-75
2023/10/05 00:25:00;;;;;;;;;;;;;;;17.27;61.44;100284.25;348996;28;1290;-75
2023/10/05 00:25:10;;;;;;;;;;;;;;;17.26;61.56;100275.47;350375;28;1389;-74
2023/10/05 00:25:24;;;;;;;;;;;;;;;17.24;61.69;100277.34;349352;28;1551;-75
2023/10/05 00:25:39;;;;;;;;;;;;;;;17.24;61.71;100281.78;347541;28;1457;-75
2023/10/05 00:25:50;;;;;;;;;;;;;;;17.27;61.54;100269.22;349216;28;880;-75
2023/10/05 00:26:01;;;;;;;;;;;;;;;17.29;61.58;100280.56;350218;28;1286;-75
2023/10/05 00:26:11;;;;;;;;;;;;;;;17.30;61.45;100276.13;351670;28;1325;-75
2023/10/05 00:26:23;;;;;;;;;;;;;;;17.30;61.41;100276.13;351909;28;811;-75
2023/10/05 00:26:56;;;;;;;;;;;;;;;17.30;61.26;100278.78;348889;28;1386;-75
2023/10/05 00:27:09;;;;;;;;;;;;;;;17.32;61.30;100282.19;349162;28;1206;-75
2023/10/05 00:27:20;;;;;;;;;;;;;;;17.33;61.35;100280.41;348739;28;1028;-75
2023/10/05 00:27:30;;;;;;;;;;;;;;;17.35;61.24;100284.63;348682;28;932;-75
2023/10/05 00:27:43;;;;;;;;;;;;;;;17.35;60.99;100278.47;347327;28;1554;-75
2023/10/05 00:27:55;;;;;;;;;;;;;;;17.35;61.18;100281.13;347435;28;922;-75
2023/10/05 00:28:10;;;;;;;;;;;;;;;17.34;61.17;100287.38;347404;28;1019;-75
2023/10/05 00:28:23;;;;;;;;;;;;;;;17.32;61.46;100286.63;348695;28;1406;-76
2023/10/05 00:28:35;;;;;;;;;;;;;;;17.30;61.52;100284.06;350256;28;1470;-75
2023/10/05 00:28:55;;;;;;;;;;;;;;;17.28;61.63;100285.94;348913;28;1114;-75
2023/10/05 00:29:26;;;;;;;;;;;;;;;17.28;61.62;100284.16;347344;28;1256;-74
2023/10/05 00:29:45;;;;;;;;;;;;;;;17.28;61.57;100280.66;343986;28;1114;-74
2023/10/05 00:29:57;;;;;;;;;;;;;;;17.29;60.99;100285.00;343906;28;1506;-74
2023/10/05 00:30:07;;;;;;;;;;;;;;;17.28;60.74;100289.44;341532;28;1349;-74
2023/10/05 00:30:18;;;;;;;;;;;;;;;17.27;60.52;100282.47;342099;28;1320;-74
2023/10/05 00:30:28;;;;;;;;;;;;;;;17.30;60.58;100286.72;338355;29;1047;-74
2023/10/05 00:30:39;;;;;;;;;;;;;;;17.29;60.42;100282.38;338072;29;1342;-74
2023/10/05 00:30:52;;;;;;;;;;;;;;;17.29;60.56;100285.00;338109;29;837;-74
2023/10/05 00:31:04;;;;;;;;;;;;;;;17.30;60.46;100278.78;337955;29;1481;-74
2023/10/05 00:31:15;;;;;;;;;;;;;;;17.29;60.58;100283.22;339450;29;778;-74
2023/10/05 00:31:25;;;;;;;;;;;;;;;17.30;60.65;100286.72;339313;29;901;-74
2023/10/05 00:31:39;;;;;;;;;;;;;;;17.30;60.78;100281.44;336854;29;1410;-74
2023/10/05 00:31:49;;;;;;;;;;;;;;;17.30;60.80;100289.38;335792;28;1610;-74
2023/10/05 00:31:59;;;;;;;;;;;;;;;17.29;60.96;100287.66;340873;28;825;-74
2023/10/05 00:32:15;;;;;;;;;;;;;;;17.26;61.26;100280.75;340480;28;1335;-74
2023/10/05 00:32:35;;;;;;;;;;;;;;;17.26;61.25;100280.75;340027;29;1529;-76
2023/10/05 00:32:52;;;;;;;;;;;;;;;17.25;61.49;100289.63;338169;29;859;-75
2023/10/05 00:33:09;;;;;;;;;;;;;;;17.23;61.25;100288.88;334329;29;841;-75
2023/10/05 00:33:20;;;;;;;;;;;;;;;17.24;61.57;100287.91;336420;29;1328;-75
2023/10/05 00:33:30;;;;;;;;;;;;;;;17.23;61.53;100291.50;336882;29;1475;-75
2023/10/05 00:33:41;;;;;;;;;;;;;;;17.24;61.63;100287.06;334718;29;1497;-75
2023/10/05 00:33:56;;;;;;;;;;;;;;;17.24;61.43;100292.34;334104;29;1798;-75
2023/10/05 00:34:13;;;;;;;;;;;;;;;17.24;61.49;100292.34;334806;29;1945;-75
2023/10/05 00:34:30;;;;;;;;;;;;;;;17.25;61.17;100291.41;335195;29;1547;-75
2023/10/05 00:34:42;;;;;;;;;;;;;;;17.24;60.91;100287.06;335958;29;1822;-75
2023/10/05 00:34:56;;;;;;;;;;;;;;;17.22;61.21;100288.94;334181;29;1467;-75
2023/10/05 00:35:26;;;;;;;;;;;;;;;17.23;61.13;100290.66;333970;29;1247;-74
2023/10/05 00:35:38;;;;;;;;;;;;;;;17.19;61.23;100291.78;329858;29;1756;-75
2023/10/05 00:35:49;;;;;;;;;;;;;;;17.19;61.29;100294.41;327559;29;2243;-75
2023/10/05 00:35:59;;;;;;;;;;;;;;;17.20;61.29;100280.25;326645;30;1410;-75
2023/10/05 00:36:13;;;;;;;;;;;;;;;17.22;61.35;100294.25;326861;29;2262;-75
2023/10/05 00:36:33;;;;;;;;;;;;;;;17.22;61.40;100288.94;326357;30;2361;-74
2023/10/05 00:36:46;;;;;;;;;;;;;;;17.23;61.45;100285.38;322075;30;1280;-75
2023/10/05 00:36:58;;;;;;;;;;;;;;;17.22;61.46;100288.94;316371;30;2174;-75
2023/10/05 00:37:09;;;;;;;;;;;;;;;17.22;61.51;100288.94;316420;31;1031;-75
2023/10/05 00:37:19;;;;;;;;;;;;;;;17.21;61.54;100288.09;318680;30;1283;-74
2023/10/05 00:37:29;;;;;;;;;;;;;;;17.20;61.75;100291.69;321987;30;940;-75
2023/10/05 00:37:44;;;;;;;;;;;;;;;17.19;61.60;100286.47;321513;30;2092;-74
2023/10/05 00:37:58;;;;;;;;;;;;;;;17.20;61.53;100288.19;317152;30;2613;-74
2023/10/05 00:38:19;;;;;;;;;;;;;;;17.18;61.42;100288.28;318669;30;3114;-75
2023/10/05 00:38:29;;;;;;;;;;;;;;;17.18;61.60;100290.91;320355;30;1388;-75
2023/10/05 00:38:39;;;;;;;;;;;;;;;17.16;61.55;100294.59;314469;31;3136;-75
2023/10/05 00:38:50;;;;;;;;;;;;;;;17.14;61.82;100284.09;313633;30;2928;-75
2023/10/05 00:39:02;;;;;;;;;;;;;;;17.12;61.70;100290.41;316360;31;869;-75
2023/10/05 00:39:15;;;;;;;;;;;;;;;17.10;61.75;100292.28;314379;31;2599;-75
2023/10/05 00:39:26;;;;;;;;;;;;;;;17.09;61.68;100293.22;315297;31;1607;-75
2023/10/05 00:39:37;;;;;;;;;;;;;;;17.06;61.67;100298.69;311502;31;2023;-75
2023/10/05 00:39:49;;;;;;;;;;;;;;;17.04;61.94;100296.13;308539;32;815;-75
2023/10/05 00:39:59;;;;;;;;;;;;;;;17.06;61.71;100285.47;314010;31;826;-75
2023/10/05 00:40:12;;;;;;;;;;;;;;;17.06;61.76;100288.97;311549;31;4328;-75
2023/10/05 00:40:35;;;;;;;;;;;;;;;17.07;61.77;100295.09;306613;31;4730;-75
2023/10/05 00:41:02;;;;;;;;;;;;;;;17.09;61.80;100282.66;304200;32;932;-75
2023/10/05 00:41:13;;;;;;;;;;;;;;;17.11;61.71;100291.34;302734;32;4214;-75
2023/10/05 00:41:24;;;;;;;;;;;;;;;17.10;61.66;100292.28;301409;32;3805;-75
2023/10/05 00:41:34;;;;;;;;;;;;;;;17.12;61.68;100288.63;302230;32;2660;-75
2023/10/05 00:41:45;;;;;;;;;;;;;;;17.10;61.67;100287.84;301604;32;1750;-75
2023/10/05 00:42:11;;;;;;;;;;;;;;;17.10;61.89;100279.06;300147;32;4507;-75
2023/10/05 00:42:21;;;;;;;;;;;;;;;17.08;61.95;100288.88;299003;32;6028;-75
2023/10/05 00:42:31;;;;;;;;;;;;;;;17.06;61.83;100288.09;296954;33;1990;-75
2023/10/05 00:42:42;;;;;;;;;;;;;;;17.04;61.91;100290.00;292936;33;6884;-75
2023/10/05 00:42:52;;;;;;;;;;;;;;;17.03;62.02;100288.28;295661;32;6509;-75
2023/10/05 00:43:07;;;;;;;;;;;;;;;17.02;62.08;100283.94;302101;32;803;-75
2023/10/05 00:43:31;;;;;;;;;;;;;;;16.99;62.19;100286.75;297197;33;1270;-75
2023/10/05 00:43:46;;;;;;;;;;;;;;;16.98;62.21;100295.63;295860;33;5388;-75
2023/10/05 00:43:56;;;;;;;;;;;;;;;16.95;62.13;100297.50;289276;33;4243;-75
2023/10/05 00:44:07;;;;;;;;;;;;;;;16.95;62.31;100292.22;287535;34;5301;-75
2023/10/05 00:44:18;;;;;;;;;;;;;;;16.94;62.31;100285.22;288172;34;1416;-75
2023/10/05 00:44:34;;;;;;;;;;;;;;;16.94;62.31;100287.84;287348;34;1132;-75
2023/10/05 00:44:46;;;;;;;;;;;;;;;16.96;62.35;100290.41;284531;34;826;-75
2023/10/05 00:46:26;;;;;;;;;;;;;;;16.94;62.16;100287.84;2491043;27;19937;-74
2023/10/05 00:46:38;;;;;;;;;;;;;;;16.94;62.20;100285.22;351651;28;1301;-74
2023/10/05 00:46:49;;;;;;;;;;;;;;;16.94;62.33;100287.84;349407;28;1111;-74
2023/10/05 00:47:00;;;;;;;;;;;;;;;16.94;62.34;100290.50;349022;28;1145;-74
2023/10/05 00:47:13;;;;;;;;;;;;;;;16.94;62.18;100290.50;349428;28;1244;-74
2023/10/05 00:47:24;;;;;;;;;;;;;;;16.95;61.98;100281.63;349070;28;856;-75
2023/10/05 00:47:34;;;;;;;;;;;;;;;16.96;61.87;100287.78;347571;28;1502;-75
2023/10/05 00:47:45;;;;;;;;;;;;;;;16.99;61.87;100286.75;349740;28;1465;-75
2023/10/05 00:48:02;;;;;;;;;;;;;;;16.98;61.81;100283.25;348997;28;876;-75
2023/10/05 00:48:29;;;;;;;;;;;;;;;17.01;61.93;100287.50;349083;28;1267;-75
2023/10/05 00:48:54;;;;;;;;;;;;;;;17.02;61.50;100291.88;346211;28;812;-75
2023/10/05 00:49:14;;;;;;;;;;;;;;;17.06;61.64;100277.53;343499;28;1335;-75
2023/10/05 00:49:28;;;;;;;;;;;;;;;17.03;61.90;100288.28;345239;28;1361;-74
2023/10/05 00:49:59;;;;;;;;;;;;;;;17.03;61.79;100283.00;344560;28;1480;-74
2023/10/05 00:50:10;;;;;;;;;;;;;;;16.95;62.20;100294.00;343226;28;1315;-75
2023/10/05 00:50:21;;;;;;;;;;;;;;;16.93;62.29;100285.31;343364;28;1252;-75
2023/10/05 00:50:33;;;;;;;;;;;;;;;16.91;62.33;100290.69;343571;28;2358;-75
2023/10/05 00:50:46;;;;;;;;;;;;;;;16.89;62.44;100287.28;347739;28;824;-75
2023/10/05 00:50:59;;;;;;;;;;;;;;;16.87;62.36;100289.16;347286;28;1267;-74
2023/10/05 00:51:14;;;;;;;;;;;;;;;16.88;62.39;100288.22;349043;28;816;-74
2023/10/05 00:51:30;;;;;;;;;;;;;;;16.90;62.12;100288.97;347738;28;840;-74
2023/10/05 00:51:40;;;;;;;;;;;;;;;16.91;62.11;100280.09;347613;28;969;-74
2023/10/05 00:52:15;;;;;;;;;;;;;;;16.92;61.98;100284.44;346303;28;1054;-74
2023/10/05 00:52:25;;;;;;;;;;;;;;;16.90;61.98;100278.38;348900;28;1241;-74
2023/10/05 00:52:35;;;;;;;;;;;;;;;16.89;61.66;100287.28;348203;28;1336;-74
2023/10/05 00:52:48;;;;;;;;;;;;;;;16.89;61.95;100282.00;344792;28;1311;-75
2023/10/05 00:52:59;;;;;;;;;;;;;;;16.91;61.89;100284.53;347530;28;1342;-75
2023/10/05 00:53:10;;;;;;;;;;;;;;;16.90;61.97;100283.69;344739;28;1657;-75
2023/10/05 00:53:21;;;;;;;;;;;;;;;16.91;61.99;100284.53;344826;28;1213;-75
2023/10/05 00:53:32;;;;;;;;;;;;;;;16.91;61.84;100290.69;346454;28;1075;-75
2023/10/05 00:53:42;;;;;;;;;;;;;;;16.91;61.86;100285.38;346353;28;804;-75
2023/10/05 00:53:53;;;;;;;;;;;;;;;16.92;61.80;100289.72;343476;28;1318;-75
2023/10/05 00:54:05;;;;;;;;;;;;;;;16.91;61.82;100290.69;345084;28;1154;-75
2023/10/05 00:54:19;;;;;;;;;;;;;;;16.90;61.95;100288.97;345296;28;1288;-74
2023/10/05 00:54:31;;;;;;;;;;;;;;;16.91;61.79;100285.38;344976;28;892;-75
2023/10/05 00:54:44;;;;;;;;;;;;;;;16.90;61.86;100281.03;344763;28;1276;-75
2023/10/05 00:54:56;;;;;;;;;;;;;;;16.91;61.82;100290.69;344576;28;1263;-75
2023/10/05 00:55:10;;;;;;;;;;;;;;;16.92;61.85;100291.53;343085;28;1521;-75
2023/10/05 00:55:20;;;;;;;;;;;;;;;16.90;62.15;100285.47;342567;28;1971;-75
2023/10/05 00:55:31;;;;;;;;;;;;;;;16.89;62.13;100287.28;340788;29;1206;-74
2023/10/05 00:55:43;;;;;;;;;;;;;;;16.89;62.14;100283.78;339664;29;1332;-74
2023/10/05 00:55:58;;;;;;;;;;;;;;;16.90;61.96;100285.47;340754;29;1566;-74
2023/10/05 00:56:11;;;;;;;;;;;;;;;16.85;62.22;100288.41;341685;28;1277;-74
2023/10/05 00:56:22;;;;;;;;;;;;;;;16.86;62.08;100286.59;345614;28;1329;-74
2023/10/05 00:56:35;;;;;;;;;;;;;;;16.85;62.21;100285.75;342517;28;1800;-74
2023/10/05 00:56:46;;;;;;;;;;;;;;;16.85;62.35;100287.56;336003;29;1954;-74
2023/10/05 00:57:02;;;;;;;;;;;;;;;16.85;62.15;100282.25;334408;29;1235;-74
2023/10/05 00:57:18;;;;;;;;;;;;;;;16.86;62.08;100284.81;330566;29;1251;-75
2023/10/05 00:57:29;;;;;;;;;;;;;;;16.89;62.14;100287.28;328042;30;2668;-74
2023/10/05 00:57:39;;;;;;;;;;;;;;;16.89;62.27;100283.78;327847;30;1655;-74
2023/10/05 00:57:49;;;;;;;;;;;;;;;16.89;62.02;100284.66;328229;30;1163;-74
2023/10/05 00:58:00;;;;;;;;;;;;;;;16.89;62.28;100287.28;329376;30;756;-74
2023/10/05 00:58:14;;;;;;;;;;;;;;;16.90;62.06;100283.69;327002;30;1015;-74
2023/10/05 00:58:34;;;;;;;;;;;;;;;16.91;61.96;100285.38;327808;30;1906;-74
2023/10/05 00:58:46;;;;;;;;;;;;;;;16.92;61.96;100284.44;320893;30;1422;-74
2023/10/05 00:59:04;;;;;;;;;;;;;;;16.91;62.14;100280.09;317571;31;1486;-74
2023/10/05 00:59:15;;;;;;;;;;;;;;;16.92;62.08;100289.72;316428;31;878;-74
2023/10/05 00:59:26;;;;;;;;;;;;;;;16.92;62.09;100289.72;315199;31;1456;-74
2023/10/05 00:59:37;;;;;;;;;;;;;;;16.91;61.95;100282.75;318801;30;2761;-75
2023/10/05 00:59:58;;;;;;;;;;;;;;;16.88;62.21;100290.88;318157;30;1927;-75
2023/10/05 01:00:27;;;;;;;;;;;;;;;16.86;62.13;100287.47;320151;30;1353;-74
2023/10/05 01:00:50;;;;;;;;;;;;;;;16.86;62.35;100286.59;315365;31;2606;-75
2023/10/05 01:01:05;;;;;;;;;;;;;;;16.83;62.47;100287.63;313602;31;3331;-75
2023/10/05 01:01:16;;;;;;;;;;;;;;;16.82;62.40;100285.06;314841;31;3515;-75
2023/10/05 01:01:33;;;;;;;;;;;;;;;16.81;62.72;100286.00;312852;31;1400;-75
2023/10/05 01:02:03;;;;;;;;;;;;;;;16.81;62.64;100278.94;310835;31;1225;-74
2023/10/05 01:02:20;;;;;;;;;;;;;;;16.82;62.79;100279.78;308657;32;874;-74
2023/10/05 01:02:38;;;;;;;;;;;;;;;16.83;62.82;100282.34;308843;31;2887;-74
2023/10/05 01:03:33;;;;;;;;;;;;;;;16.83;62.84;100281.50;310928;31;1180;-74
2023/10/05 01:04:26;;;;;;;;;;;;;;;16.83;62.99;100281.50;302631;32;3451;-74
2023/10/05 01:04:34;;;;;;;;;;;;;;;16.83;63.00;100282.34;301180;32;1286;-74
2023/10/05 01:05:14;;;;;;;;;;;;;;;16.82;63.05;100285.94;297611;33;1502;-74
2023/10/05 01:05:34;;;;;;;;;;;;;;;16.81;62.93;100284.22;290095;33;6213;-74
2023/10/05 01:05:51;;;;;;;;;;;;;;;16.80;64.04;100290.44;293158;33;2296;-74
2023/10/05 01:06:12;;;;;;;;;;;;;;;16.79;64.05;100286.09;287381;34;6536;-74
2023/10/05 01:06:31;;;;;;;;;;;;;;;16.79;64.32;100288.75;290388;33;6164;-74
2023/10/05 01:06:47;;;;;;;;;;;;;;;16.79;64.28;100286.09;289577;34;1795;-74
2023/10/05 01:07:07;;;;;;;;;;;;;;;16.82;64.07;100285.94;287453;34;1407;-74
2023/10/05 01:07:18;;;;;;;;;;;;;;;16.83;63.88;100282.34;285563;34;7824;-74
2023/10/05 01:07:43;;;;;;;;;;;;;;;16.82;64.00;100285.94;284470;34;741;-74
2023/10/05 01:07:56;;;;;;;;;;;;;;;16.83;63.76;100285.00;278716;35;8216;-74
2023/10/05 01:08:15;;;;;;;;;;;;;;;16.81;63.76;100281.56;278527;35;10158;-74
2023/10/05 01:08:26;;;;;;;;;;;;;;;16.83;63.63;100282.34;281846;34;9257;-74
2023/10/05 01:08:48;;;;;;;;;;;;;;;16.83;63.55;100285.00;275606;35;9008;-74
2023/10/05 01:09:04;;;;;;;;;;;;;;;16.81;63.48;100286.88;274747;36;897;-75
2023/10/05 01:10:44;;;;;;;;;;;;;;;16.83;63.66;100287.63;2489758;27;19957;-75
2023/10/05 01:10:58;;;;;;;;;;;;;;;16.83;64.00;100284.13;354575;27;1384;-75
2023/10/05 01:11:14;;;;;;;;;;;;;;;16.82;63.95;100279.78;351855;28;1147;-74
2023/10/05 01:11:42;;;;;;;;;;;;;;;16.84;63.97;100286.69;350342;28;1473;-75
2023/10/05 01:12:01;;;;;;;;;;;;;;;16.84;64.36;100289.34;348987;28;820;-75
2023/10/05 01:12:16;;;;;;;;;;;;;;;16.84;64.32;100288.47;347743;28;828;-75
2023/10/05 01:12:41;;;;;;;;;;;;;;;16.82;64.45;100293.84;346390;28;824;-75
2023/10/05 01:12:54;;;;;;;;;;;;;;;16.82;64.73;100290.38;343335;28;876;-75
2023/10/05 01:13:20;;;;;;;;;;;;;;;16.82;64.47;100290.38;344296;28;841;-74
2023/10/05 01:13:32;;;;;;;;;;;;;;;16.81;64.63;100284.22;346316;28;1242;-74
2023/10/05 01:13:43;;;;;;;;;;;;;;;16.81;64.41;100288.66;344760;28;1582;-74
2023/10/05 01:13:56;;;;;;;;;;;;;;;16.82;64.49;100290.38;343513;28;884;-74
2023/10/05 01:14:06;;;;;;;;;;;;;;;16.81;64.66;100289.50;342147;28;914;-75
2023/10/05 01:14:17;;;;;;;;;;;;;;;16.81;64.61;100286.00;340847;28;1574;-75
2023/10/05 01:14:37;;;;;;;;;;;;;;;16.81;64.79;100283.38;344924;28;958;-75
2023/10/05 01:14:59;;;;;;;;;;;;;;;16.78;64.66;100289.69;343371;28;954;-75
2023/10/05 01:15:15;;;;;;;;;;;;;;;16.76;64.54;100294.19;343410;28;1270;-76
2023/10/05 01:15:33;;;;;;;;;;;;;;;16.74;64.61;100289.94;346258;28;1259;-75
2023/10/05 01:15:44;;;;;;;;;;;;;;;16.73;64.65;100283.78;346350;28;836;-75
2023/10/05 01:15:55;;;;;;;;;;;;;;;16.76;64.39;100285.41;346296;28;1415;-75
2023/10/05 01:16:19;;;;;;;;;;;;;;;16.75;64.63;100289.84;346048;28;1180;-75
2023/10/05 01:16:32;;;;;;;;;;;;;;;16.76;64.54;100286.25;343587;28;848;-75
2023/10/05 01:16:43;;;;;;;;;;;;;;;16.78;64.41;100286.19;340937;29;842;-75
2023/10/05 01:16:58;;;;;;;;;;;;;;;16.78;64.66;100289.69;342555;28;1120;-74
2023/10/05 01:17:08;;;;;;;;;;;;;;;16.80;64.43;100286.94;343448;28;1226;-75
2023/10/05 01:17:22;;;;;;;;;;;;;;;16.78;64.56;100279.09;343387;28;1139;-75
2023/10/05 01:17:34;;;;;;;;;;;;;;;16.80;64.59;100293.09;342786;28;1795;-75
2023/10/05 01:17:44;;;;;;;;;;;;;;;16.79;64.66;100288.75;343658;28;931;-75
2023/10/05 01:17:56;;;;;;;;;;;;;;;16.80;64.85;100287.81;343593;28;856;-75
2023/10/05 01:18:06;;;;;;;;;;;;;;;16.80;64.63;100286.94;343307;28;1353;-74
2023/10/05 01:18:16;;;;;;;;;;;;;;;16.79;64.80;100283.44;342198;28;1261;-75
2023/10/05 01:18:27;;;;;;;;;;;;;;;16.79;64.70;100286.09;340783;29;951;-75
2023/10/05 01:18:39;;;;;;;;;;;;;;;16.79;64.66;100286.09;339158;29;1423;-75
2023/10/05 01:18:50;;;;;;;;;;;;;;;16.75;64.84;100289.00;340477;28;1482;-75
2023/10/05 01:19:07;;;;;;;;;;;;;;;16.73;64.72;100291.72;340653;29;1194;-75
2023/10/05 01:19:18;;;;;;;;;;;;;;;16.70;65.05;100286.59;339180;29;1595;-75
2023/10/05 01:19:28;;;;;;;;;;;;;;;16.70;65.15;100291.03;334167;29;1915;-75
2023/10/05 01:19:41;;;;;;;;;;;;;;;16.71;65.05;100290.09;335490;29;1693;-75
2023/10/05 01:19:56;;;;;;;;;;;;;;;16.70;65.00;100291.03;335692;29;969;-74
2023/10/05 01:20:11;;;;;;;;;;;;;;;16.69;65.06;100284.91;337937;29;1315;-74
2023/10/05 01:20:22;;;;;;;;;;;;;;;16.69;65.21;100289.31;339581;29;1205;-74
2023/10/05 01:20:36;;;;;;;;;;;;;;;16.70;65.17;100285.75;340412;29;1395;-74
2023/10/05 01:20:49;;;;;;;;;;;;;;;16.71;65.12;100290.94;338055;29;1319;-74
2023/10/05 01:21:02;;;;;;;;;;;;;;;16.73;64.90;100288.22;330542;29;796;-74
2023/10/05 01:21:13;;;;;;;;;;;;;;;16.74;64.69;100287.28;331729;29;1299;-74